sensor_id;sensor_type;location;lat;lon;timestamp;P1;durP1;ratioP1;P2;durP2;ratioP2
73869;SDS011;64924;42.140;24.762;2023-12-04T00:01:48;11.23;;;7.53;;
73869;SDS011;64924;42.140;24.762;2023-12-04T00:04:14;12.55;;;8.15;;
73869;SDS011;64924;42.140;24.762;2023-12-04T00:06:43;11.23;;;7.78;;
73869;SDS011;64924;42.140;24.762;2023-12-04T00:09:08;11.43;;;7.25;;
73869;SDS011;64924;42.140;24.762;2023-12-04T00:11:34;11.15;;;7.78;;
73869;SDS011;64924;42.140;24.762;2023-12-04T00:13:59;10.55;;;7.43;;
73869;SDS011;64924;42.140;24.762;2023-12-04T00:16:25;11.52;;;7.10;;
73869;SDS011;64924;42.140;24.762;2023-12-04T00:18:51;12.65;;;7.05;;
73869;SDS011;64924;42.140;24.762;2023-12-04T00:21:17;12.15;;;7.65;;
73869;SDS011;64924;42.140;24.762;2023-12-04T00:23:42;11.68;;;7.47;;
73869;SDS011;64924;42.140;24.762;2023-12-04T00:26:08;11.75;;;7.68;;
73869;SDS011;64924;42.140;24.762;2023-12-04T00:28:36;12.65;;;7.78;;
73869;SDS011;64924;42.140;24.762;2023-12-04T00:31:02;13.25;;;7.85;;
73869;SDS011;64924;42.140;24.762;2023-12-04T00:33:28;12.73;;;7.97;;
73869;SDS011;64924;42.140;24.762;2023-12-04T00:35:53;12.68;;;7.22;;
73869;SDS011;64924;42.140;24.762;2023-12-04T00:38:19;14.20;;;7.70;;
73869;SDS011;64924;42.140;24.762;2023-12-04T00:40:44;15.30;;;7.85;;
73869;SDS011;64924;42.140;24.762;2023-12-04T00:43:10;12.82;;;7.80;;
73869;SDS011;64924;42.140;24.762;2023-12-04T00:45:35;11.75;;;8.18;;
73869;SDS011;64924;42.140;24.762;2023-12-04T00:48:01;10.90;;;7.20;;
73869;SDS011;64924;42.140;24.762;2023-12-04T00:50:27;12.70;;;7.68;;
73869;SDS011;64924;42.140;24.762;2023-12-04T00:52:53;11.35;;;6.88;;
73869;SDS011;64924;42.140;24.762;2023-12-04T00:55:19;11.13;;;7.45;;
73869;SDS011;64924;42.140;24.762;2023-12-04T00:57:45;12.55;;;7.03;;
73869;SDS011;64924;42.140;24.762;2023-12-04T01:00:10;12.32;;;7.43;;
73869;SDS011;64924;42.140;24.762;2023-12-04T01:02:37;11.05;;;7.43;;
73869;SDS011;64924;42.140;24.762;2023-12-04T01:05:02;10.65;;;7.07;;
73869;SDS011;64924;42.140;24.762;2023-12-04T01:07:28;11.85;;;7.05;;
73869;SDS011;64924;42.140;24.762;2023-12-04T01:09:54;8.98;;;5.72;;
73869;SDS011;64924;42.140;24.762;2023-12-04T01:12:19;13.30;;;7.15;;
73869;SDS011;64924;42.140;24.762;2023-12-04T01:14:46;11.20;;;6.60;;
73869;SDS011;64924;42.140;24.762;2023-12-04T01:17:12;11.30;;;6.88;;
73869;SDS011;64924;42.140;24.762;2023-12-04T01:19:37;11.18;;;6.63;;
73869;SDS011;64924;42.140;24.762;2023-12-04T01:22:03;12.85;;;6.93;;
73869;SDS011;64924;42.140;24.762;2023-12-04T01:24:28;9.02;;;6.38;;
73869;SDS011;64924;42.140;24.762;2023-12-04T01:26:54;10.43;;;6.45;;
73869;SDS011;64924;42.140;24.762;2023-12-04T01:29:19;11.00;;;6.50;;
73869;SDS011;64924;42.140;24.762;2023-12-04T01:31:45;8.38;;;5.43;;
73869;SDS011;64924;42.140;24.762;2023-12-04T01:34:10;8.13;;;6.00;;
73869;SDS011;64924;42.140;24.762;2023-12-04T01:36:39;9.80;;;5.57;;
73869;SDS011;64924;42.140;24.762;2023-12-04T01:39:06;9.00;;;5.40;;
73869;SDS011;64924;42.140;24.762;2023-12-04T01:41:31;8.45;;;5.82;;
73869;SDS011;64924;42.140;24.762;2023-12-04T01:43:57;8.35;;;5.55;;
73869;SDS011;64924;42.140;24.762;2023-12-04T01:46:22;8.63;;;5.78;;
73869;SDS011;64924;42.140;24.762;2023-12-04T01:48:48;7.82;;;5.53;;
73869;SDS011;64924;42.140;24.762;2023-12-04T01:51:14;8.57;;;5.90;;
73869;SDS011;64924;42.140;24.762;2023-12-04T01:53:42;9.70;;;6.35;;
73869;SDS011;64924;42.140;24.762;2023-12-04T01:56:08;9.50;;;6.10;;
73869;SDS011;64924;42.140;24.762;2023-12-04T01:58:34;7.90;;;4.75;;
73869;SDS011;64924;42.140;24.762;2023-12-04T02:01:00;8.10;;;5.38;;
73869;SDS011;64924;42.140;24.762;2023-12-04T02:03:26;10.30;;;6.30;;
73869;SDS011;64924;42.140;24.762;2023-12-04T02:05:53;10.15;;;6.07;;
73869;SDS011;64924;42.140;24.762;2023-12-04T02:08:19;9.85;;;5.35;;
73869;SDS011;64924;42.140;24.762;2023-12-04T02:10:45;8.75;;;4.90;;
73869;SDS011;64924;42.140;24.762;2023-12-04T02:13:11;11.73;;;6.45;;
73869;SDS011;64924;42.140;24.762;2023-12-04T02:15:36;6.90;;;5.10;;
73869;SDS011;64924;42.140;24.762;2023-12-04T02:18:03;8.50;;;5.60;;
73869;SDS011;64924;42.140;24.762;2023-12-04T02:20:34;8.48;;;5.70;;
73869;SDS011;64924;42.140;24.762;2023-12-04T02:23:01;8.57;;;5.38;;
73869;SDS011;64924;42.140;24.762;2023-12-04T02:25:27;10.43;;;5.70;;
73869;SDS011;64924;42.140;24.762;2023-12-04T02:27:54;8.80;;;4.70;;
73869;SDS011;64924;42.140;24.762;2023-12-04T02:30:23;6.32;;;4.47;;
73869;SDS011;64924;42.140;24.762;2023-12-04T02:32:50;8.30;;;5.00;;
73869;SDS011;64924;42.140;24.762;2023-12-04T02:35:20;6.78;;;4.82;;
73869;SDS011;64924;42.140;24.762;2023-12-04T02:37:48;6.80;;;4.40;;
73869;SDS011;64924;42.140;24.762;2023-12-04T02:40:15;7.88;;;5.15;;
73869;SDS011;64924;42.140;24.762;2023-12-04T02:42:41;7.70;;;5.13;;
73869;SDS011;64924;42.140;24.762;2023-12-04T02:45:06;6.55;;;4.38;;
73869;SDS011;64924;42.140;24.762;2023-12-04T02:47:32;7.32;;;4.40;;
73869;SDS011;64924;42.140;24.762;2023-12-04T02:49:58;7.00;;;4.60;;
73869;SDS011;64924;42.140;24.762;2023-12-04T02:52:23;8.82;;;4.57;;
73869;SDS011;64924;42.140;24.762;2023-12-04T02:54:49;7.35;;;5.03;;
73869;SDS011;64924;42.140;24.762;2023-12-04T02:57:14;8.30;;;5.03;;
73869;SDS011;64924;42.140;24.762;2023-12-04T02:59:40;6.85;;;4.25;;
73869;SDS011;64924;42.140;24.762;2023-12-04T03:02:05;7.07;;;5.13;;
73869;SDS011;64924;42.140;24.762;2023-12-04T03:04:31;9.02;;;4.93;;
73869;SDS011;64924;42.140;24.762;2023-12-04T03:06:57;8.82;;;5.13;;
73869;SDS011;64924;42.140;24.762;2023-12-04T03:09:22;6.95;;;5.03;;
73869;SDS011;64924;42.140;24.762;2023-12-04T03:11:48;9.63;;;4.65;;
73869;SDS011;64924;42.140;24.762;2023-12-04T03:14:13;8.57;;;5.07;;
73869;SDS011;64924;42.140;24.762;2023-12-04T03:16:39;6.65;;;5.07;;
73869;SDS011;64924;42.140;24.762;2023-12-04T03:19:05;8.18;;;5.80;;
73869;SDS011;64924;42.140;24.762;2023-12-04T03:21:30;9.25;;;5.82;;
73869;SDS011;64924;42.140;24.762;2023-12-04T03:23:56;7.57;;;5.05;;
73869;SDS011;64924;42.140;24.762;2023-12-04T03:26:21;9.30;;;5.10;;
73869;SDS011;64924;42.140;24.762;2023-12-04T03:28:47;8.88;;;4.80;;
73869;SDS011;64924;42.140;24.762;2023-12-04T03:31:12;8.82;;;5.20;;
73869;SDS011;64924;42.140;24.762;2023-12-04T03:33:38;8.65;;;5.40;;
73869;SDS011;64924;42.140;24.762;2023-12-04T03:36:03;8.02;;;5.43;;
73869;SDS011;64924;42.140;24.762;2023-12-04T03:38:29;7.25;;;4.95;;
73869;SDS011;64924;42.140;24.762;2023-12-04T03:40:55;10.20;;;5.40;;
73869;SDS011;64924;42.140;24.762;2023-12-04T03:43:20;10.27;;;5.07;;
73869;SDS011;64924;42.140;24.762;2023-12-04T03:45:46;8.23;;;5.28;;
73869;SDS011;64924;42.140;24.762;2023-12-04T03:48:11;7.90;;;5.18;;
73869;SDS011;64924;42.140;24.762;2023-12-04T03:50:37;8.70;;;5.32;;
73869;SDS011;64924;42.140;24.762;2023-12-04T03:53:02;7.70;;;4.80;;
73869;SDS011;64924;42.140;24.762;2023-12-04T03:55:28;7.63;;;4.85;;
73869;SDS011;64924;42.140;24.762;2023-12-04T03:57:54;6.88;;;4.60;;
73869;SDS011;64924;42.140;24.762;2023-12-04T04:00:21;7.78;;;4.93;;
73869;SDS011;64924;42.140;24.762;2023-12-04T04:02:47;8.90;;;4.88;;
73869;SDS011;64924;42.140;24.762;2023-12-04T04:05:13;8.88;;;4.63;;
73869;SDS011;64924;42.140;24.762;2023-12-04T04:07:39;5.57;;;4.20;;
73869;SDS011;64924;42.140;24.762;2023-12-04T04:10:05;7.03;;;5.18;;
73869;SDS011;64924;42.140;24.762;2023-12-04T04:12:32;7.07;;;4.72;;
73869;SDS011;64924;42.140;24.762;2023-12-04T04:14:58;7.75;;;5.03;;
73869;SDS011;64924;42.140;24.762;2023-12-04T04:17:23;6.93;;;4.85;;
73869;SDS011;64924;42.140;24.762;2023-12-04T04:19:51;7.03;;;4.93;;
73869;SDS011;64924;42.140;24.762;2023-12-04T04:22:17;6.80;;;4.57;;
73869;SDS011;64924;42.140;24.762;2023-12-04T04:24:42;6.55;;;4.95;;
73869;SDS011;64924;42.140;24.762;2023-12-04T04:27:08;9.43;;;5.82;;
73869;SDS011;64924;42.140;24.762;2023-12-04T04:29:33;17.50;;;5.93;;
73869;SDS011;64924;42.140;24.762;2023-12-04T04:31:59;9.50;;;5.28;;
73869;SDS011;64924;42.140;24.762;2023-12-04T04:34:25;9.02;;;5.38;;
73869;SDS011;64924;42.140;24.762;2023-12-04T04:36:50;6.75;;;4.53;;
73869;SDS011;64924;42.140;24.762;2023-12-04T04:39:16;8.55;;;4.85;;
73869;SDS011;64924;42.140;24.762;2023-12-04T04:41:41;9.05;;;5.82;;
73869;SDS011;64924;42.140;24.762;2023-12-04T04:44:07;9.40;;;5.53;;
73869;SDS011;64924;42.140;24.762;2023-12-04T04:46:32;8.85;;;5.78;;
73869;SDS011;64924;42.140;24.762;2023-12-04T04:48:58;8.45;;;5.68;;
73869;SDS011;64924;42.140;24.762;2023-12-04T04:51:23;9.27;;;5.68;;
73869;SDS011;64924;42.140;24.762;2023-12-04T04:53:49;9.27;;;6.55;;
73869;SDS011;64924;42.140;24.762;2023-12-04T04:56:14;9.88;;;6.90;;
73869;SDS011;64924;42.140;24.762;2023-12-04T04:58:40;9.75;;;6.45;;
73869;SDS011;64924;42.140;24.762;2023-12-04T05:01:06;13.00;;;6.93;;
73869;SDS011;64924;42.140;24.762;2023-12-04T05:03:31;9.60;;;6.35;;
73869;SDS011;64924;42.140;24.762;2023-12-04T05:05:57;10.70;;;6.50;;
73869;SDS011;64924;42.140;24.762;2023-12-04T05:08:23;9.95;;;6.82;;
73869;SDS011;64924;42.140;24.762;2023-12-04T05:10:48;12.18;;;7.07;;
73869;SDS011;64924;42.140;24.762;2023-12-04T05:13:14;10.13;;;6.75;;
73869;SDS011;64924;42.140;24.762;2023-12-04T05:15:39;11.00;;;6.57;;
73869;SDS011;64924;42.140;24.762;2023-12-04T05:18:05;11.70;;;7.65;;
73869;SDS011;64924;42.140;24.762;2023-12-04T05:20:30;10.48;;;7.00;;
73869;SDS011;64924;42.140;24.762;2023-12-04T05:22:56;11.73;;;6.38;;
73869;SDS011;64924;42.140;24.762;2023-12-04T05:25:22;11.65;;;7.72;;
73869;SDS011;64924;42.140;24.762;2023-12-04T05:27:48;11.57;;;7.20;;
73869;SDS011;64924;42.140;24.762;2023-12-04T05:30:13;10.10;;;7.00;;
73869;SDS011;64924;42.140;24.762;2023-12-04T05:32:39;12.07;;;7.30;;
73869;SDS011;64924;42.140;24.762;2023-12-04T05:35:05;9.23;;;7.05;;
73869;SDS011;64924;42.140;24.762;2023-12-04T05:37:31;12.52;;;7.53;;
73869;SDS011;64924;42.140;24.762;2023-12-04T05:39:57;10.98;;;7.50;;
73869;SDS011;64924;42.140;24.762;2023-12-04T05:42:22;12.38;;;6.85;;
73869;SDS011;64924;42.140;24.762;2023-12-04T05:44:48;12.90;;;7.85;;
73869;SDS011;64924;42.140;24.762;2023-12-04T05:47:14;11.35;;;7.03;;
73869;SDS011;64924;42.140;24.762;2023-12-04T05:49:39;10.13;;;6.85;;
73869;SDS011;64924;42.140;24.762;2023-12-04T05:52:05;12.73;;;7.47;;
73869;SDS011;64924;42.140;24.762;2023-12-04T05:54:31;11.60;;;7.30;;
73869;SDS011;64924;42.140;24.762;2023-12-04T05:56:57;8.95;;;6.13;;
73869;SDS011;64924;42.140;24.762;2023-12-04T05:59:23;9.98;;;6.88;;
73869;SDS011;64924;42.140;24.762;2023-12-04T06:01:48;12.48;;;7.50;;
73869;SDS011;64924;42.140;24.762;2023-12-04T06:04:14;9.45;;;6.78;;
73869;SDS011;64924;42.140;24.762;2023-12-04T06:06:39;10.05;;;6.93;;
73869;SDS011;64924;42.140;24.762;2023-12-04T06:09:05;10.88;;;7.20;;
73869;SDS011;64924;42.140;24.762;2023-12-04T06:11:30;12.55;;;7.63;;
73869;SDS011;64924;42.140;24.762;2023-12-04T06:13:56;13.32;;;8.30;;
73869;SDS011;64924;42.140;24.762;2023-12-04T06:16:21;10.32;;;7.18;;
73869;SDS011;64924;42.140;24.762;2023-12-04T06:18:47;11.10;;;7.38;;
73869;SDS011;64924;42.140;24.762;2023-12-04T06:21:12;14.25;;;7.20;;
73869;SDS011;64924;42.140;24.762;2023-12-04T06:23:38;9.55;;;6.43;;
73869;SDS011;64924;42.140;24.762;2023-12-04T06:26:04;11.57;;;7.13;;
73869;SDS011;64924;42.140;24.762;2023-12-04T06:28:30;10.77;;;6.30;;
73869;SDS011;64924;42.140;24.762;2023-12-04T06:30:57;11.45;;;7.35;;
73869;SDS011;64924;42.140;24.762;2023-12-04T06:33:23;14.13;;;6.82;;
73869;SDS011;64924;42.140;24.762;2023-12-04T06:35:49;10.68;;;6.50;;
73869;SDS011;64924;42.140;24.762;2023-12-04T06:38:15;8.52;;;5.80;;
73869;SDS011;64924;42.140;24.762;2023-12-04T06:40:44;9.38;;;6.13;;
73869;SDS011;64924;42.140;24.762;2023-12-04T06:43:09;11.27;;;7.97;;
73869;SDS011;64924;42.140;24.762;2023-12-04T06:45:35;8.45;;;5.63;;
73869;SDS011;64924;42.140;24.762;2023-12-04T06:48:01;10.02;;;6.30;;
73869;SDS011;64924;42.140;24.762;2023-12-04T06:50:27;10.50;;;5.95;;
73869;SDS011;64924;42.140;24.762;2023-12-04T06:52:52;8.90;;;6.10;;
73869;SDS011;64924;42.140;24.762;2023-12-04T06:55:18;8.75;;;5.57;;
73869;SDS011;64924;42.140;24.762;2023-12-04T06:57:44;8.57;;;5.93;;
73869;SDS011;64924;42.140;24.762;2023-12-04T07:00:10;10.35;;;6.03;;
73869;SDS011;64924;42.140;24.762;2023-12-04T07:02:37;9.25;;;6.10;;
73869;SDS011;64924;42.140;24.762;2023-12-04T07:05:03;9.30;;;5.97;;
73869;SDS011;64924;42.140;24.762;2023-12-04T07:07:29;10.80;;;6.57;;
73869;SDS011;64924;42.140;24.762;2023-12-04T07:09:54;8.77;;;6.35;;
73869;SDS011;64924;42.140;24.762;2023-12-04T07:12:20;8.60;;;5.93;;
73869;SDS011;64924;42.140;24.762;2023-12-04T07:14:45;10.50;;;6.50;;
73869;SDS011;64924;42.140;24.762;2023-12-04T07:17:11;9.98;;;6.07;;
73869;SDS011;64924;42.140;24.762;2023-12-04T07:19:36;10.18;;;6.32;;
73869;SDS011;64924;42.140;24.762;2023-12-04T07:22:02;11.05;;;6.30;;
73869;SDS011;64924;42.140;24.762;2023-12-04T07:24:28;8.65;;;5.70;;
73869;SDS011;64924;42.140;24.762;2023-12-04T07:26:53;9.30;;;6.30;;
73869;SDS011;64924;42.140;24.762;2023-12-04T07:29:19;9.45;;;6.57;;
73869;SDS011;64924;42.140;24.762;2023-12-04T07:31:44;9.18;;;6.22;;
73869;SDS011;64924;42.140;24.762;2023-12-04T07:34:10;11.93;;;6.28;;
73869;SDS011;64924;42.140;24.762;2023-12-04T07:36:35;12.38;;;5.60;;
73869;SDS011;64924;42.140;24.762;2023-12-04T07:39:01;10.73;;;6.43;;
73869;SDS011;64924;42.140;24.762;2023-12-04T07:41:26;10.43;;;6.75;;
73869;SDS011;64924;42.140;24.762;2023-12-04T07:43:52;14.18;;;8.73;;
73869;SDS011;64924;42.140;24.762;2023-12-04T07:46:17;10.02;;;6.75;;
73869;SDS011;64924;42.140;24.762;2023-12-04T07:48:43;11.18;;;6.88;;
73869;SDS011;64924;42.140;24.762;2023-12-04T07:51:11;12.45;;;7.50;;
73869;SDS011;64924;42.140;24.762;2023-12-04T07:53:37;17.15;;;8.13;;
73869;SDS011;64924;42.140;24.762;2023-12-04T07:56:02;8.32;;;5.57;;
73869;SDS011;64924;42.140;24.762;2023-12-04T07:58:29;7.85;;;5.35;;
73869;SDS011;64924;42.140;24.762;2023-12-04T08:00:56;9.25;;;5.65;;
73869;SDS011;64924;42.140;24.762;2023-12-04T08:03:21;11.45;;;6.18;;
73869;SDS011;64924;42.140;24.762;2023-12-04T08:05:49;7.93;;;5.20;;
73869;SDS011;64924;42.140;24.762;2023-12-04T08:08:15;7.47;;;5.40;;
73869;SDS011;64924;42.140;24.762;2023-12-04T08:10:41;9.73;;;4.90;;
73869;SDS011;64924;42.140;24.762;2023-12-04T08:13:07;7.72;;;5.45;;
73869;SDS011;64924;42.140;24.762;2023-12-04T08:15:32;8.73;;;5.60;;
73869;SDS011;64924;42.140;24.762;2023-12-04T08:17:58;8.13;;;4.97;;
73869;SDS011;64924;42.140;24.762;2023-12-04T08:20:23;7.70;;;5.82;;
73869;SDS011;64924;42.140;24.762;2023-12-04T08:22:48;8.43;;;5.45;;
73869;SDS011;64924;42.140;24.762;2023-12-04T08:25:14;11.68;;;5.93;;
73869;SDS011;64924;42.140;24.762;2023-12-04T08:27:41;9.23;;;5.68;;
73869;SDS011;64924;42.140;24.762;2023-12-04T08:30:07;9.48;;;5.45;;
73869;SDS011;64924;42.140;24.762;2023-12-04T08:32:33;8.30;;;5.53;;
73869;SDS011;64924;42.140;24.762;2023-12-04T08:34:59;11.98;;;6.15;;
73869;SDS011;64924;42.140;24.762;2023-12-04T08:37:24;9.57;;;6.03;;
73869;SDS011;64924;42.140;24.762;2023-12-04T08:39:50;9.98;;;6.18;;
73869;SDS011;64924;42.140;24.762;2023-12-04T08:42:16;8.73;;;5.57;;
73869;SDS011;64924;42.140;24.762;2023-12-04T08:44:41;17.85;;;10.98;;
73869;SDS011;64924;42.140;24.762;2023-12-04T08:47:08;12.30;;;7.10;;
73869;SDS011;64924;42.140;24.762;2023-12-04T08:49:33;10.27;;;6.35;;
73869;SDS011;64924;42.140;24.762;2023-12-04T08:51:59;8.80;;;6.07;;
73869;SDS011;64924;42.140;24.762;2023-12-04T08:54:24;10.93;;;6.28;;
73869;SDS011;64924;42.140;24.762;2023-12-04T08:56:50;9.82;;;6.07;;
73869;SDS011;64924;42.140;24.762;2023-12-04T08:59:16;11.95;;;6.07;;
73869;SDS011;64924;42.140;24.762;2023-12-04T09:01:42;9.43;;;6.75;;
73869;SDS011;64924;42.140;24.762;2023-12-04T09:04:08;13.70;;;6.68;;
73869;SDS011;64924;42.140;24.762;2023-12-04T09:06:34;9.95;;;6.15;;
73869;SDS011;64924;42.140;24.762;2023-12-04T09:09:00;12.50;;;7.22;;
73869;SDS011;64924;42.140;24.762;2023-12-04T09:11:26;11.88;;;6.30;;
73869;SDS011;64924;42.140;24.762;2023-12-04T09:13:51;10.75;;;6.82;;
73869;SDS011;64924;42.140;24.762;2023-12-04T09:16:17;13.07;;;6.78;;
73869;SDS011;64924;42.140;24.762;2023-12-04T09:18:42;11.57;;;6.68;;
73869;SDS011;64924;42.140;24.762;2023-12-04T09:21:08;14.02;;;7.82;;
73869;SDS011;64924;42.140;24.762;2023-12-04T09:23:34;16.15;;;10.27;;
73869;SDS011;64924;42.140;24.762;2023-12-04T09:26:00;14.18;;;8.35;;
73869;SDS011;64924;42.140;24.762;2023-12-04T09:28:26;12.65;;;8.77;;
73869;SDS011;64924;42.140;24.762;2023-12-04T09:30:52;14.38;;;8.95;;
73869;SDS011;64924;42.140;24.762;2023-12-04T09:33:18;12.45;;;7.40;;
73869;SDS011;64924;42.140;24.762;2023-12-04T09:35:44;13.15;;;7.55;;
73869;SDS011;64924;42.140;24.762;2023-12-04T09:38:09;13.75;;;7.18;;
73869;SDS011;64924;42.140;24.762;2023-12-04T09:40:35;13.20;;;8.40;;
73869;SDS011;64924;42.140;24.762;2023-12-04T09:43:01;11.52;;;7.72;;
73869;SDS011;64924;42.140;24.762;2023-12-04T09:45:26;14.13;;;8.05;;
73869;SDS011;64924;42.140;24.762;2023-12-04T09:47:54;10.98;;;7.20;;
73869;SDS011;64924;42.140;24.762;2023-12-04T09:50:20;14.20;;;6.80;;
73869;SDS011;64924;42.140;24.762;2023-12-04T09:52:50;13.15;;;7.35;;
73869;SDS011;64924;42.140;24.762;2023-12-04T09:55:20;12.02;;;7.50;;
73869;SDS011;64924;42.140;24.762;2023-12-04T09:57:45;11.45;;;6.70;;
73869;SDS011;64924;42.140;24.762;2023-12-04T10:00:12;11.68;;;6.88;;
73869;SDS011;64924;42.140;24.762;2023-12-04T10:02:39;12.85;;;7.38;;
73869;SDS011;64924;42.140;24.762;2023-12-04T10:05:06;10.65;;;7.82;;
73869;SDS011;64924;42.140;24.762;2023-12-04T10:07:32;14.48;;;8.80;;
73869;SDS011;64924;42.140;24.762;2023-12-04T10:09:58;15.85;;;7.65;;
73869;SDS011;64924;42.140;24.762;2023-12-04T10:12:24;13.70;;;7.97;;
73869;SDS011;64924;42.140;24.762;2023-12-04T10:15:03;11.18;;;6.53;;
73869;SDS011;64924;42.140;24.762;2023-12-04T10:17:34;12.93;;;7.95;;
73869;SDS011;64924;42.140;24.762;2023-12-04T10:22:54;10.25;;;7.15;;
73869;SDS011;64924;42.140;24.762;2023-12-04T10:25:24;10.68;;;6.75;;
73869;SDS011;64924;42.140;24.762;2023-12-04T10:27:51;12.60;;;7.72;;
73869;SDS011;64924;42.140;24.762;2023-12-04T10:30:25;11.88;;;6.72;;
73869;SDS011;64924;42.140;24.762;2023-12-04T10:32:55;13.88;;;8.00;;
73869;SDS011;64924;42.140;24.762;2023-12-04T10:35:25;12.80;;;8.15;;
73869;SDS011;64924;42.140;24.762;2023-12-04T10:37:57;16.83;;;8.32;;
73869;SDS011;64924;42.140;24.762;2023-12-04T10:40:28;10.82;;;7.13;;
73869;SDS011;64924;42.140;24.762;2023-12-04T10:43:09;14.10;;;7.70;;
73869;SDS011;64924;42.140;24.762;2023-12-04T10:45:43;11.60;;;7.82;;
73869;SDS011;64924;42.140;24.762;2023-12-04T10:48:10;11.82;;;7.50;;
73869;SDS011;64924;42.140;24.762;2023-12-04T10:50:38;12.50;;;7.70;;
73869;SDS011;64924;42.140;24.762;2023-12-04T10:53:05;13.35;;;7.22;;
73869;SDS011;64924;42.140;24.762;2023-12-04T10:55:32;11.00;;;6.93;;
73869;SDS011;64924;42.140;24.762;2023-12-04T10:57:59;12.25;;;8.10;;
73869;SDS011;64924;42.140;24.762;2023-12-04T11:00:27;13.48;;;8.18;;
73869;SDS011;64924;42.140;24.762;2023-12-04T11:02:55;12.05;;;8.45;;
73869;SDS011;64924;42.140;24.762;2023-12-04T11:05:22;12.95;;;7.88;;
73869;SDS011;64924;42.140;24.762;2023-12-04T11:07:53;14.27;;;9.05;;
73869;SDS011;64924;42.140;24.762;2023-12-04T11:10:21;13.48;;;8.23;;
73869;SDS011;64924;42.140;24.762;2023-12-04T11:12:50;11.18;;;7.65;;
73869;SDS011;64924;42.140;24.762;2023-12-04T11:15:21;13.65;;;8.30;;
73869;SDS011;64924;42.140;24.762;2023-12-04T11:17:51;12.90;;;8.30;;
73869;SDS011;64924;42.140;24.762;2023-12-04T11:20:24;15.20;;;8.27;;
73869;SDS011;64924;42.140;24.762;2023-12-04T11:22:52;14.30;;;7.85;;
73869;SDS011;64924;42.140;24.762;2023-12-04T11:25:20;14.38;;;9.13;;
73869;SDS011;64924;42.140;24.762;2023-12-04T11:27:50;12.17;;;7.47;;
73869;SDS011;64924;42.140;24.762;2023-12-04T11:30:17;11.32;;;6.95;;
73869;SDS011;64924;42.140;24.762;2023-12-04T11:32:44;13.45;;;7.57;;
73869;SDS011;64924;42.140;24.762;2023-12-04T11:35:14;10.95;;;7.35;;
73869;SDS011;64924;42.140;24.762;2023-12-04T11:37:43;12.80;;;7.70;;
73869;SDS011;64924;42.140;24.762;2023-12-04T11:40:12;11.40;;;6.68;;
73869;SDS011;64924;42.140;24.762;2023-12-04T11:42:41;10.48;;;6.53;;
73869;SDS011;64924;42.140;24.762;2023-12-04T11:45:07;10.60;;;6.80;;
73869;SDS011;64924;42.140;24.762;2023-12-04T11:48:06;10.68;;;7.30;;
73869;SDS011;64924;42.140;24.762;2023-12-04T11:50:25;10.50;;;7.00;;
73869;SDS011;64924;42.140;24.762;2023-12-04T11:52:51;11.98;;;7.72;;
73869;SDS011;64924;42.140;24.762;2023-12-04T11:55:16;11.73;;;7.40;;
73869;SDS011;64924;42.140;24.762;2023-12-04T11:57:44;10.32;;;7.13;;
73869;SDS011;64924;42.140;24.762;2023-12-04T12:02:40;9.95;;;6.95;;
73869;SDS011;64924;42.140;24.762;2023-12-04T12:05:11;10.88;;;6.65;;
73869;SDS011;64924;42.140;24.762;2023-12-04T12:07:37;13.38;;;8.23;;
73869;SDS011;64924;42.140;24.762;2023-12-04T12:10:03;14.38;;;8.55;;
73869;SDS011;64924;42.140;24.762;2023-12-04T12:12:29;11.32;;;7.43;;
73869;SDS011;64924;42.140;24.762;2023-12-04T12:14:57;12.82;;;7.20;;
73869;SDS011;64924;42.140;24.762;2023-12-04T12:17:22;11.88;;;6.50;;
73869;SDS011;64924;42.140;24.762;2023-12-04T12:19:48;12.10;;;7.88;;
73869;SDS011;64924;42.140;24.762;2023-12-04T12:22:13;11.95;;;7.75;;
73869;SDS011;64924;42.140;24.762;2023-12-04T12:24:39;10.77;;;6.15;;
73869;SDS011;64924;42.140;24.762;2023-12-04T12:27:05;12.02;;;6.95;;
73869;SDS011;64924;42.140;24.762;2023-12-04T12:29:30;12.05;;;6.78;;
73869;SDS011;64924;42.140;24.762;2023-12-04T12:31:56;10.32;;;6.38;;
73869;SDS011;64924;42.140;24.762;2023-12-04T12:34:21;15.15;;;8.77;;
73869;SDS011;64924;42.140;24.762;2023-12-04T12:36:47;13.98;;;6.85;;
73869;SDS011;64924;42.140;24.762;2023-12-04T12:39:13;10.05;;;6.07;;
73869;SDS011;64924;42.140;24.762;2023-12-04T12:41:46;11.93;;;6.68;;
73869;SDS011;64924;42.140;24.762;2023-12-04T12:44:13;9.75;;;6.07;;
73869;SDS011;64924;42.140;24.762;2023-12-04T12:46:40;14.38;;;8.88;;
73869;SDS011;64924;42.140;24.762;2023-12-04T12:49:06;12.30;;;7.63;;
73869;SDS011;64924;42.140;24.762;2023-12-04T12:51:31;11.10;;;7.07;;
73869;SDS011;64924;42.140;24.762;2023-12-04T12:53:57;16.23;;;7.18;;
73869;SDS011;64924;42.140;24.762;2023-12-04T12:56:25;13.95;;;8.30;;
73869;SDS011;64924;42.140;24.762;2023-12-04T12:58:52;16.13;;;8.60;;
73869;SDS011;64924;42.140;24.762;2023-12-04T13:01:18;13.13;;;8.15;;
73869;SDS011;64924;42.140;24.762;2023-12-04T13:03:47;14.40;;;8.30;;
73869;SDS011;64924;42.140;24.762;2023-12-04T13:06:13;13.63;;;8.40;;
73869;SDS011;64924;42.140;24.762;2023-12-04T13:08:38;15.07;;;8.77;;
73869;SDS011;64924;42.140;24.762;2023-12-04T13:11:04;13.13;;;8.73;;
73869;SDS011;64924;42.140;24.762;2023-12-04T13:13:30;16.38;;;10.52;;
73869;SDS011;64924;42.140;24.762;2023-12-04T13:15:57;22.60;;;12.10;;
73869;SDS011;64924;42.140;24.762;2023-12-04T13:18:22;19.45;;;11.18;;
73869;SDS011;64924;42.140;24.762;2023-12-04T13:20:48;18.73;;;9.82;;
73869;SDS011;64924;42.140;24.762;2023-12-04T13:23:13;16.52;;;9.90;;
73869;SDS011;64924;42.140;24.762;2023-12-04T13:25:39;20.60;;;11.05;;
73869;SDS011;64924;42.140;24.762;2023-12-04T13:28:04;17.90;;;10.13;;
73869;SDS011;64924;42.140;24.762;2023-12-04T13:30:30;16.88;;;10.10;;
73869;SDS011;64924;42.140;24.762;2023-12-04T13:32:56;14.68;;;9.63;;
73869;SDS011;64924;42.140;24.762;2023-12-04T13:35:21;18.17;;;10.65;;
73869;SDS011;64924;42.140;24.762;2023-12-04T13:37:47;17.63;;;10.05;;
73869;SDS011;64924;42.140;24.762;2023-12-04T13:40:19;16.33;;;10.13;;
73869;SDS011;64924;42.140;24.762;2023-12-04T13:42:45;16.55;;;11.25;;
73869;SDS011;64924;42.140;24.762;2023-12-04T13:45:29;14.77;;;9.52;;
73869;SDS011;64924;42.140;24.762;2023-12-04T13:47:56;19.05;;;10.10;;
73869;SDS011;64924;42.140;24.762;2023-12-04T13:50:22;16.52;;;10.23;;
73869;SDS011;64924;42.140;24.762;2023-12-04T13:52:48;17.42;;;11.50;;
73869;SDS011;64924;42.140;24.762;2023-12-04T13:55:21;20.95;;;11.95;;
73869;SDS011;64924;42.140;24.762;2023-12-04T13:58:02;22.02;;;11.65;;
73869;SDS011;64924;42.140;24.762;2023-12-04T14:00:28;18.73;;;12.10;;
73869;SDS011;64924;42.140;24.762;2023-12-04T14:02:54;19.92;;;11.48;;
73869;SDS011;64924;42.140;24.762;2023-12-04T14:05:29;22.90;;;12.88;;
73869;SDS011;64924;42.140;24.762;2023-12-04T14:07:54;19.55;;;12.07;;
73869;SDS011;64924;42.140;24.762;2023-12-04T14:10:20;17.33;;;11.88;;
73869;SDS011;64924;42.140;24.762;2023-12-04T14:12:46;22.90;;;12.13;;
73869;SDS011;64924;42.140;24.762;2023-12-04T14:15:12;20.35;;;11.90;;
73869;SDS011;64924;42.140;24.762;2023-12-04T14:17:37;23.35;;;12.10;;
73869;SDS011;64924;42.140;24.762;2023-12-04T14:20:05;26.08;;;11.75;;
73869;SDS011;64924;42.140;24.762;2023-12-04T14:22:37;25.20;;;13.85;;
73869;SDS011;64924;42.140;24.762;2023-12-04T14:25:06;19.55;;;11.23;;
73869;SDS011;64924;42.140;24.762;2023-12-04T14:27:32;17.95;;;10.25;;